MDT,Max TemperatureF,Mean TemperatureF,Min TemperatureF,Max Dew PointF,MeanDew PointF,Min DewpointF,Max Humidity, Mean Humidity, Min Humidity, Max Sea Level PressureIn, Mean Sea Level PressureIn, Min Sea Level PressureIn, Max VisibilityMiles, Mean VisibilityMiles, Min VisibilityMiles, Max Wind SpeedMPH, Mean Wind SpeedMPH, Max Gust SpeedMPH,PrecipitationIn, CloudCover, Events, WindDirDegrees
2014-3-1,-9,-14,-18,-18,-24,-27,92,62,49,30.51,30.46,30.36,10,10,8,16,10,18,0.00,1,,352
2014-3-2,5,-6,-16,-6,-13,-27,100,66,51,30.47,30.37,30.15,10,10,10,15,6,20,0.00,3,,100
2014-3-3,17,9,1,7,0,-9,85,69,53,30.14,29.99,29.93,10,10,6,10,7,,0.00,4,,90
2014-3-4,23,16,6,12,8,1,92,77,63,30.05,29.97,29.90,10,10,2,13,8,,0.00,5,,57
2014-3-5,46,24,3,30,20,-8,100,72,50,30.02,29.88,29.70,10,10,10,15,6,,0.00,1,,198
2014-3-6,42,28,15,30,24,9,93,82,57,30.02,29.75,29.63,10,10,8,22,9,26,0.00,5,,10
2014-3-7,23,16,8,14,8,1,92,70,54,30.22,30.16,30.02,10,10,6,14,8,,0.00,5,,27
2014-3-8,50,32,14,34,24,9,93,69,50,30.18,30.05,29.83,10,10,10,20,8,26,0.00,1,,212
2014-3-9,62,50,39,39,33,28,76,57,39,29.83,29.75,29.70,10,10,10,26,13,33,0.00,1,,244
2014-3-10,44,40,35,39,34,30,93,83,70,29.90,29.82,29.78,10,10,8,14,7,,0.02,2,,259
2014-3-11,46,35,24,28,24,18,86,65,32,30.24,30.15,29.91,10,10,10,26,13,32,0.00,2,,310
2014-3-12,55,40,24,28,25,19,86,59,33,30.20,30.08,29.95,10,10,10,25,12,33,0.00,0,,272
2014-3-13,53,40,28,28,26,21,80,56,30,29.93,29.81,29.73,10,10,10,30,14,37,0.00,1,,262
2014-3-14,50,37,24,27,22,18,86,56,34,29.91,29.86,29.79,10,10,10,13,7,,0.00,1,,295
2014-3-15,35,30,24,30,26,21,100,86,70,30.35,30.13,29.79,10,8,0,17,9,,0.05,7,,68
2014-3-16,62,43,24,34,28,23,93,65,26,30.26,29.93,29.64,10,10,10,25,11,36,0.01,2,,225
2014-3-17,46,40,33,37,32,27,87,75,61,29.76,29.52,29.41,10,10,6,21,8,28,0.05,3,,350
2014-3-18,42,33,24,28,24,19,93,72,42,30.03,29.95,29.77,10,10,10,21,13,26,0.00,2,,305
2014-3-19,50,36,23,30,23,16,93,61,26,30.02,29.95,29.85,10,10,7,15,9,21,0.00,2,,265
2014-3-20,51,38,24,32,24,14,93,61,24,29.88,29.78,29.70,10,10,8,29,12,41,0.00,3,,239
2014-3-21,33,24,14,30,14,5,93,73,54,30.46,30.26,29.89,10,9,2,25,17,32,0.00,7,,357
2014-3-22,21,14,8,7,3,0,85,65,39,30.54,30.48,30.42,10,10,7,13,8,18,0.00,4,,332
2014-3-23,28,18,8,21,13,1,93,78,64,30.41,30.27,30.20,10,8,2,9,4,,0.00,3,,32
2014-3-24,28,19,10,19,11,1,93,69,40,30.41,30.36,30.30,10,10,2,24,11,31,0.00,4,,306
2014-3-25,33,20,6,19,11,0,92,67,41,30.40,30.08,29.65,10,10,10,15,6,17,0.00,1,,133
2014-3-26,42,32,23,21,18,16,86,63,36,29.65,29.54,29.48,10,10,10,16,8,20,0.00,0,,20
2014-3-27,37,27,17,18,16,12,93,64,38,29.85,29.78,29.66,10,10,9,15,9,,0.00,2,,56
2014-3-28,33,28,23,25,21,16,93,76,59,30.07,29.99,29.85,10,9,2,14,9,,0.03,5,,68
2014-3-29,60,43,26,36,30,21,93,63,34,29.93,29.75,29.67,10,10,10,30,9,37,0.00,2,,223
2014-3-30,42,35,26,36,30,25,93,79,61,29.87,29.79,29.75,10,7,1,25,11,32,0.32,6,,25
2014-3-31,26,17,6,23,12,3,93,77,63,30.17,30.09,29.87,10,7,2,25,16,33,0.06,5,,10